Anaheim, CA (92801)

7:32 PM PDT on August 04, 2015 (GMT -0700)
EUCLID/LAPALMA | | Change Station
CLOSE
Current Station
Personal Weather Station
Location: Anaheim, CA
Elevation: 128 ft
Nearby Weather Stations

Elev 128 ft 33.85 °N, 117.95 °W | Updated 5 seconds ago

Clear
Clear
80.3 °F
Feels Like 81 °F
N
1.0
Wind Variable Wind from NE
Gusts 4.0 mph

Today
High -- | Low -- °F
--% Chance of Precip.
Yesterday
High -- | Low -- °F
Precip. -- in
6:05 AM 7:49 PM
Waning Gibbous, 72% visible
Pressure 29.87 in
Visibility 10.0 miles
Clouds Clear
Heat Index 81 °F
Dew Point 58 °F
Humidity 46%
Rainfall 0.00 in
Snow Depth Not available.
UV 1 out of 12
Pollen 4.00 out of 12
Air Quality Not available.
Flu Activity Not available.
METAR KFUL 050153Z 26006KT 10SM CLR 28/13 A2987 RMK AO2 SLP113 T02780128

More Conditions Fewer Conditions

Pressure 29.87 in
Visibility 10.0 miles
Clouds Clear
Heat Index 81 °F
Dew Point 58 °F
Humidity 46%
Rainfall 0.00 in
Snow Depth Not available.
UV 1 out of 12
Pollen 4.00 out of 12
Air Quality Not available.
Flu Activity Not available.
METAR KFUL 050153Z 26006KT 10SM CLR 28/13 A2987 RMK AO2 SLP113 T02780128

More Conditions Fewer Conditions

10-Day Weather Forecast

×

Almanac

Astronomy

Aug. 04, 2015 Rise Set
Actual Time
Civil Twilight
Nautical Twilight
Astronomical Twilight
Moon
Length of Visible Light
Length of Day
Tomorrow will be .
, % of the Moon is Illuminated

Today's Extremes

State Highs State Lows

Community

WunderPhotos

Upload Photos

1,844,087 photos uploaded!

WunderBlogs® & News

Nearby

Air Quality

  Air Quality AQ Index Pollutant
Not available.

Snow Depth

Station Depth Elevation

Earthquake Activity

City Distance Mag. Time & Date
Minimum magnitude displayed is 2.5.

Coastal Water Temperatures

Place Temperature

Stations

Nearby Weather Stations

Station Location Temp. Windchill Dew Point Humidity Wind Precip. Elev Updated Type